Time;durP1;ratioP1;P1;durP2;ratioP2;P2;SDS_P1;SDS_P2;PMS_P1;PMS_P2;Temp;Humidity;BMP_temperature;BMP_pressure;BME280_temperature;BME280_humidity;BME280_pressure;Samples;Min_cycle;Max_cycle;Signal;HPM_P1;HPM_P2
2022/06/07 00:00:05;;;;;;;23.02;19.23;;;13.20;99.90;;;;;;5028194;28;20041;-61
2022/06/07 00:02:33;;;;;;;23.95;19.58;;;13.20;99.90;;;;;;5031246;28;20029;-61
2022/06/07 00:04:59;;;;;;;25.30;19.20;;;13.20;99.90;;;;;;5033760;28;20500;-61
2022/06/07 00:07:26;;;;;;;26.88;21.65;;;13.20;99.90;;;;;;5029637;28;20029;-61
2022/06/07 00:09:52;;;;;;;28.05;21.98;;;13.20;99.90;;;;;;5035735;28;20025;-61
2022/06/07 00:12:18;;;;;;;26.13;20.52;;;13.20;99.90;;;;;;5038051;28;20501;-61
2022/06/07 00:14:44;;;;;;;26.70;21.33;;;13.20;99.90;;;;;;5037536;28;20040;-61
2022/06/07 00:17:11;;;;;;;29.65;21.75;;;13.30;99.90;;;;;;5031010;28;20235;-61
2022/06/07 00:19:37;;;;;;;32.38;22.70;;;13.30;99.90;;;;;;5036516;28;20473;-61
2022/06/07 00:22:03;;;;;;;29.65;22.75;;;13.30;99.90;;;;;;5037265;28;20033;-61
2022/06/07 00:24:29;;;;;;;31.67;22.42;;;13.30;99.90;;;;;;5035859;28;20029;-61
2022/06/07 00:26:55;;;;;;;28.60;21.95;;;13.30;99.90;;;;;;5031515;28;20478;-61
2022/06/07 00:29:23;;;;;;;29.63;22.33;;;13.40;99.90;;;;;;5033491;28;20029;-61
2022/06/07 00:31:48;;;;;;;25.45;20.55;;;13.30;99.90;;;;;;5034201;28;20037;-61
2022/06/07 00:34:14;;;;;;;30.92;22.33;;;13.40;99.90;;;;;;5039469;28;20029;-61
2022/06/07 00:36:40;;;;;;;27.48;22.10;;;13.40;99.90;;;;;;5033005;28;20029;-61
2022/06/07 00:39:07;;;;;;;24.55;20.20;;;13.40;99.90;;;;;;5035051;28;20068;-61
2022/06/07 00:41:33;;;;;;;29.15;22.77;;;13.40;99.90;;;;;;5030955;28;20025;-60
2022/06/07 00:44:21;;;;;;;31.08;24.23;;;13.40;99.90;;;;;;5031741;28;20509;-61
2022/06/07 00:46:53;;;;;;;30.75;24.05;;;13.40;99.90;;;;;;5029652;28;20104;-61
2022/06/07 00:49:19;;;;;;;36.08;26.10;;;13.40;99.90;;;;;;5034491;28;20052;-61
2022/06/07 00:51:45;;;;;;;37.13;26.38;;;13.40;99.90;;;;;;5030951;28;20393;-61
2022/06/07 00:54:18;;;;;;;39.42;28.17;;;13.40;99.90;;;;;;5026612;28;20037;-61
2022/06/07 00:56:44;;;;;;;32.85;26.27;;;13.50;99.90;;;;;;5037975;28;20025;-61
2022/06/07 00:59:09;;;;;;;34.20;26.77;;;13.50;99.90;;;;;;5038603;28;20040;-61
2022/06/07 01:01:35;;;;;;;44.10;29.23;;;13.50;99.90;;;;;;5041177;28;20060;-61
2022/06/07 01:04:00;;;;;;;39.42;27.40;;;13.50;99.90;;;;;;5035848;28;20469;-61
2022/06/07 01:11:54;;;;;;;40.35;27.55;;;13.60;99.90;;;;;;5036681;28;20028;-60
2022/06/07 01:14:19;;;;;;;36.53;28.17;;;13.60;99.90;;;;;;5036869;28;20029;-61
2022/06/07 01:16:46;;;;;;;37.60;27.52;;;13.60;99.90;;;;;;5040007;28;20033;-61
2022/06/07 01:19:11;;;;;;;38.20;28.90;;;13.60;99.90;;;;;;5039165;28;20025;-61
2022/06/07 01:21:38;;;;;;;40.30;28.70;;;13.60;99.90;;;;;;5035196;28;20079;-61
2022/06/07 01:24:04;;;;;;;38.95;30.77;;;13.60;99.90;;;;;;5032984;28;20485;-61
2022/06/07 01:26:31;;;;;;;36.92;28.40;;;13.70;99.90;;;;;;5031900;28;20026;-61
2022/06/07 01:28:56;;;;;;;38.30;27.70;;;13.70;99.90;;;;;;5042378;28;20029;-61
2022/06/07 01:31:22;;;;;;;38.53;28.52;;;13.60;99.90;;;;;;5036039;28;20021;-61
2022/06/07 01:33:48;;;;;;;41.63;29.92;;;13.60;99.90;;;;;;5034951;28;20422;-61
2022/06/07 01:36:16;;;;;;;32.72;27.67;;;13.70;99.90;;;;;;5042732;28;20025;-60
2022/06/07 01:38:44;;;;;;;33.92;27.55;;;13.70;99.90;;;;;;5038145;28;20060;-61
2022/06/07 01:43:56;;;;;;;37.30;29.58;;;13.70;99.90;;;;;;5033061;28;20021;-61
2022/06/07 01:46:22;;;;;;;33.70;27.20;;;13.70;99.90;;;;;;5039361;28;20415;-61
2022/06/07 01:48:50;;;;;;;37.38;28.42;;;13.70;99.90;;;;;;5041810;28;20075;-61
2022/06/07 01:51:17;;;;;;;38.60;28.30;;;13.70;99.90;;;;;;5039768;28;20630;-61
2022/06/07 01:53:43;;;;;;;41.13;27.90;;;13.70;99.90;;;;;;5034710;28;20054;-61
2022/06/07 01:56:14;;;;;;;36.63;26.50;;;13.70;99.90;;;;;;5036806;28;20030;-61
2022/06/07 01:58:42;;;;;;;38.47;26.42;;;13.70;99.90;;;;;;5039081;28;20021;-61
2022/06/07 02:01:08;;;;;;;37.47;28.58;;;13.80;99.90;;;;;;5031286;28;20048;-61
2022/06/07 02:03:34;;;;;;;35.10;27.05;;;13.70;99.90;;;;;;5035051;28;20025;-60
2022/06/07 02:06:03;;;;;;;35.35;26.13;;;13.70;99.90;;;;;;5034698;28;20116;-61
2022/06/07 02:08:29;;;;;;;33.92;26.60;;;13.70;99.90;;;;;;5029028;28;20500;-61
2022/06/07 02:10:55;;;;;;;30.42;25.65;;;13.70;99.90;;;;;;5035014;28;20025;-61
2022/06/07 02:13:22;;;;;;;34.53;25.48;;;13.70;99.90;;;;;;5043955;28;21131;-61
2022/06/07 02:15:48;;;;;;;29.88;23.42;;;13.70;99.90;;;;;;5036011;28;20029;-61
2022/06/07 02:18:15;;;;;;;31.30;25.23;;;13.70;99.90;;;;;;5036972;28;20036;-61
2022/06/07 02:20:42;;;;;;;29.27;23.55;;;13.70;99.90;;;;;;5032074;28;20034;-61
2022/06/07 02:23:08;;;;;;;30.35;24.98;;;13.70;99.90;;;;;;5036170;28;20063;-62
2022/06/07 02:25:41;;;;;;;34.30;25.60;;;13.70;99.90;;;;;;5037325;28;20048;-61
2022/06/07 02:28:08;;;;;;;31.77;24.80;;;13.70;99.90;;;;;;5042713;28;20029;-62
2022/06/07 02:30:34;;;;;;;31.20;23.65;;;13.70;99.90;;;;;;5051578;28;20027;-62
2022/06/07 02:32:59;;;;;;;30.00;22.27;;;13.70;99.90;;;;;;5040652;28;20022;-61
2022/06/07 02:35:25;;;;;;;29.88;23.73;;;13.70;99.90;;;;;;5029049;28;20045;-61
2022/06/07 02:37:51;;;;;;;29.98;22.65;;;13.70;99.90;;;;;;5039022;28;20037;-61
2022/06/07 02:40:16;;;;;;;28.55;22.27;;;13.80;99.90;;;;;;5038003;28;20037;-61
2022/06/07 02:42:42;;;;;;;30.88;24.05;;;13.80;99.90;;;;;;5040607;28;20029;-62
2022/06/07 02:45:08;;;;;;;25.02;20.75;;;13.80;99.90;;;;;;5042935;28;20441;-62
2022/06/07 02:47:33;;;;;;;25.48;20.70;;;13.80;99.90;;;;;;5035194;28;20100;-61
2022/06/07 02:49:59;;;;;;;29.40;22.67;;;13.80;99.90;;;;;;5040340;28;20104;-61
2022/06/07 02:52:24;;;;;;;27.67;22.35;;;13.80;99.90;;;;;;5039697;28;20049;-61
2022/06/07 02:54:50;;;;;;;26.05;21.20;;;13.80;99.90;;;;;;5035083;28;20507;-61
2022/06/07 02:57:16;;;;;;;25.77;21.90;;;13.80;99.90;;;;;;5029562;28;20049;-61
2022/06/07 02:59:41;;;;;;;23.50;19.63;;;13.80;99.90;;;;;;5040520;28;20029;-61
2022/06/07 03:02:07;;;;;;;24.30;19.77;;;13.80;99.90;;;;;;5037155;28;20367;-61
2022/06/07 03:04:33;;;;;;;25.85;20.02;;;13.80;99.90;;;;;;5031127;28;20065;-61
2022/06/07 03:07:00;;;;;;;23.23;18.73;;;13.80;99.90;;;;;;5037524;28;20017;-61
2022/06/07 03:09:26;;;;;;;21.52;17.90;;;13.90;99.90;;;;;;5034703;28;20060;-61
2022/06/07 03:11:52;;;;;;;24.30;18.38;;;13.80;99.90;;;;;;5037675;28;20449;-61
2022/06/07 03:14:17;;;;;;;22.80;18.25;;;13.80;99.90;;;;;;5037121;28;20493;-61
2022/06/07 03:16:43;;;;;;;20.77;17.50;;;13.80;99.90;;;;;;5033370;28;20098;-61
2022/06/07 03:19:08;;;;;;;20.77;17.55;;;13.80;99.90;;;;;;5039000;28;20031;-61
2022/06/07 03:21:34;;;;;;;23.13;18.50;;;13.80;99.90;;;;;;5038660;28;20028;-61
2022/06/07 03:24:00;;;;;;;25.15;19.23;;;13.90;99.90;;;;;;5032003;28;20032;-61
2022/06/07 03:26:26;;;;;;;23.85;19.80;;;13.90;99.90;;;;;;5031660;28;20060;-61
2022/06/07 03:28:52;;;;;;;23.33;20.60;;;13.90;99.90;;;;;;5034092;28;20028;-61
2022/06/07 03:31:19;;;;;;;23.33;18.98;;;13.90;99.90;;;;;;5036447;28;20378;-61
2022/06/07 03:33:46;;;;;;;26.08;20.48;;;13.80;99.90;;;;;;5031785;28;20354;-61
2022/06/07 03:36:16;;;;;;;30.98;21.13;;;13.80;99.90;;;;;;5041260;28;20116;-61
2022/06/07 03:38:42;;;;;;;27.75;22.02;;;13.80;99.90;;;;;;5034589;28;20033;-61
2022/06/07 03:41:08;;;;;;;22.10;19.13;;;13.80;99.90;;;;;;5037690;28;20098;-61
2022/06/07 03:43:35;;;;;;;25.50;21.30;;;13.80;99.90;;;;;;5036304;28;20119;-61
2022/06/07 03:46:13;;;;;;;28.13;20.88;;;13.80;99.90;;;;;;5030785;28;20442;-61
2022/06/07 03:48:43;;;;;;;24.75;19.92;;;13.80;99.90;;;;;;5036507;28;20468;-61
2022/06/07 03:51:10;;;;;;;26.95;20.67;;;13.70;99.90;;;;;;5033742;28;20036;-62
2022/06/07 03:53:36;;;;;;;25.75;20.88;;;13.70;99.90;;;;;;5032880;28;20073;-61
2022/06/07 03:56:03;;;;;;;24.23;20.02;;;13.70;99.90;;;;;;5037082;28;20018;-61
2022/06/07 03:58:28;;;;;;;24.85;20.35;;;13.70;99.90;;;;;;5030855;28;20079;-61
2022/06/07 04:01:02;;;;;;;23.35;18.98;;;13.70;99.90;;;;;;5045772;28;20025;-61
2022/06/07 04:03:29;;;;;;;25.60;19.85;;;13.70;99.90;;;;;;5039677;28;20025;-61
2022/06/07 04:05:55;;;;;;;23.67;19.02;;;13.70;99.90;;;;;;5044559;28;20068;-61
2022/06/07 04:08:22;;;;;;;20.73;17.65;;;13.60;99.90;;;;;;5036351;28;20026;-61
2022/06/07 04:10:55;;;;;;;19.95;17.35;;;13.60;99.90;;;;;;5035525;28;20021;-61
2022/06/07 04:13:23;;;;;;;27.58;20.52;;;13.60;99.90;;;;;;5030832;28;20018;-62
2022/06/07 04:15:49;;;;;;;23.15;19.23;;;13.60;99.90;;;;;;5034680;28;20057;-61
2022/06/07 04:18:15;;;;;;;22.20;17.83;;;13.50;99.90;;;;;;5041127;28;20057;-61
2022/06/07 04:20:41;;;;;;;26.13;20.42;;;13.50;99.90;;;;;;5041887;28;20021;-61
2022/06/07 04:23:09;;;;;;;25.55;21.05;;;13.60;99.90;;;;;;5035234;28;20097;-62
2022/06/07 04:25:36;;;;;;;22.27;19.85;;;13.50;99.90;;;;;;5033350;28;20373;-62
2022/06/07 04:28:03;;;;;;;25.50;19.88;;;13.50;99.90;;;;;;5039353;28;20402;-61
2022/06/07 04:30:30;;;;;;;24.67;20.52;;;13.50;99.90;;;;;;5033147;28;20025;-61
2022/06/07 04:32:55;;;;;;;24.23;18.70;;;13.50;99.90;;;;;;5043903;28;20021;-61
2022/06/07 04:35:21;;;;;;;24.65;18.58;;;13.50;99.90;;;;;;5043605;28;20029;-61
2022/06/07 04:37:48;;;;;;;18.45;16.27;;;13.50;99.90;;;;;;5042591;28;20547;-62
2022/06/07 04:40:15;;;;;;;23.77;18.55;;;13.50;99.90;;;;;;5037898;28;20108;-62
2022/06/07 04:42:41;;;;;;;23.52;17.92;;;13.50;99.90;;;;;;5037329;28;20025;-62
2022/06/07 04:45:11;;;;;;;23.70;17.02;;;13.50;99.90;;;;;;5040122;28;20477;-61
2022/06/07 04:47:37;;;;;;;18.05;15.93;;;13.40;99.90;;;;;;5040022;28;20040;-61
2022/06/07 04:50:04;;;;;;;21.23;17.90;;;13.40;99.90;;;;;;5033965;28;20401;-61
2022/06/07 04:52:30;;;;;;;20.60;16.65;;;13.50;99.90;;;;;;5036676;28;20044;-61
2022/06/07 04:54:56;;;;;;;17.10;13.80;;;13.40;99.90;;;;;;5039597;28;20033;-61
2022/06/07 04:57:21;;;;;;;16.73;13.98;;;13.40;99.90;;;;;;5035144;28;20057;-61
2022/06/07 04:59:47;;;;;;;16.08;13.73;;;13.40;99.90;;;;;;5041587;28;20118;-61
2022/06/07 05:02:13;;;;;;;15.45;12.65;;;13.50;99.90;;;;;;5038207;28;20037;-62
2022/06/07 05:04:39;;;;;;;16.60;13.07;;;13.50;99.90;;;;;;5037534;28;20025;-61
2022/06/07 05:07:04;;;;;;;17.45;13.75;;;13.50;99.90;;;;;;5033743;28;20375;-61
2022/06/07 05:09:30;;;;;;;17.42;14.30;;;13.50;99.90;;;;;;5034629;28;20040;-61
2022/06/07 05:11:56;;;;;;;17.38;15.05;;;13.50;99.90;;;;;;5046180;28;20017;-61
2022/06/07 05:14:22;;;;;;;20.88;15.88;;;13.50;99.90;;;;;;5040310;28;20102;-61
2022/06/07 05:16:49;;;;;;;18.50;13.75;;;13.60;99.90;;;;;;5045696;28;20408;-61
2022/06/07 05:19:14;;;;;;;15.68;13.15;;;13.60;99.90;;;;;;5035248;28;20032;-61
2022/06/07 05:21:41;;;;;;;17.17;12.88;;;13.60;99.90;;;;;;5054050;28;20017;-61
2022/06/07 05:24:07;;;;;;;14.40;12.20;;;13.70;99.90;;;;;;5054825;28;20025;-62
2022/06/07 05:26:38;;;;;;;15.57;12.95;;;13.70;99.90;;;;;;5049662;28;20108;-61
2022/06/07 05:29:19;;;;;;;16.50;14.68;;;13.80;99.90;;;;;;5038536;28;20036;-62
2022/06/07 05:31:45;;;;;;;19.27;15.35;;;13.80;99.90;;;;;;5036371;28;20029;-61
2022/06/07 05:34:10;;;;;;;18.67;14.25;;;13.80;99.90;;;;;;5036442;28;20021;-61
2022/06/07 05:36:36;;;;;;;19.48;15.25;;;13.90;99.90;;;;;;5046516;28;20087;-61
2022/06/07 05:39:03;;;;;;;17.38;13.27;;;13.90;99.90;;;;;;5047200;28;20034;-61
2022/06/07 05:41:29;;;;;;;19.55;14.45;;;13.90;99.90;;;;;;5049059;28;20017;-62
2022/06/07 05:43:55;;;;;;;18.48;13.75;;;14.00;99.90;;;;;;5045216;28;20045;-62
2022/06/07 05:46:21;;;;;;;15.82;13.40;;;14.00;99.90;;;;;;5042256;28;20064;-61
2022/06/07 05:48:47;;;;;;;15.70;13.68;;;14.10;99.90;;;;;;5045523;28;20111;-61
2022/06/07 05:51:13;;;;;;;16.45;14.02;;;14.10;99.90;;;;;;5042891;28;20031;-61
2022/06/07 05:53:39;;;;;;;17.90;13.35;;;14.10;99.90;;;;;;5050368;28;20041;-61
2022/06/07 05:56:11;;;;;;;18.40;13.50;;;14.10;99.90;;;;;;5033891;28;20021;-61
2022/06/07 05:58:44;;;;;;;16.65;14.77;;;14.20;99.90;;;;;;5037978;28;20029;-62
2022/06/07 06:01:09;;;;;;;21.08;15.93;;;14.10;99.90;;;;;;5054247;28;20463;-61
2022/06/07 06:03:40;;;;;;;18.65;14.68;;;14.10;99.90;;;;;;5040256;28;20025;-61
2022/06/07 06:06:07;;;;;;;20.10;16.30;;;14.20;99.90;;;;;;5053477;28;20085;-61
2022/06/07 06:11:20;;;;;;;20.67;15.25;;;14.20;99.90;;;;;;5035971;28;20496;-62
2022/06/07 06:13:46;;;;;;;18.65;15.35;;;14.20;99.90;;;;;;5041455;28;20474;-62
2022/06/07 06:16:15;;;;;;;20.30;15.27;;;14.20;99.90;;;;;;5047387;28;20107;-62
2022/06/07 06:18:42;;;;;;;19.27;16.85;;;14.30;99.90;;;;;;5041653;28;20029;-61
2022/06/07 06:21:08;;;;;;;20.15;15.07;;;14.30;99.90;;;;;;5052453;28;20039;-61
2022/06/07 06:23:34;;;;;;;21.02;17.00;;;14.40;99.90;;;;;;5039676;28;20082;-61
2022/06/07 06:26:00;;;;;;;19.20;15.57;;;14.40;99.90;;;;;;5040203;28;20033;-61
2022/06/07 06:28:26;;;;;;;21.30;16.55;;;14.40;99.90;;;;;;5038974;28;20025;-61
2022/06/07 06:30:53;;;;;;;21.33;16.38;;;14.50;99.90;;;;;;5040140;28;20022;-62
2022/06/07 06:33:18;;;;;;;22.23;18.35;;;14.60;99.90;;;;;;5035344;28;20457;-62
2022/06/07 06:35:51;;;;;;;19.02;15.90;;;14.50;99.90;;;;;;5045713;28;20056;-62
2022/06/07 06:38:17;;;;;;;18.20;14.38;;;14.60;99.90;;;;;;5037716;28;20104;-61
2022/06/07 06:40:45;;;;;;;24.55;17.50;;;14.70;99.90;;;;;;5033745;28;20024;-62
2022/06/07 06:43:11;;;;;;;22.75;18.50;;;14.70;99.90;;;;;;5032737;28;20038;-61
2022/06/07 06:45:37;;;;;;;19.55;16.58;;;14.70;99.90;;;;;;5033454;28;20025;-62
2022/06/07 06:48:03;;;;;;;17.38;14.82;;;14.70;99.90;;;;;;5035025;28;20096;-62
2022/06/07 06:50:29;;;;;;;20.13;17.08;;;14.80;99.90;;;;;;5037582;28;20108;-62
2022/06/07 06:52:55;;;;;;;20.75;17.42;;;14.90;99.90;;;;;;5048197;28;20065;-62
2022/06/07 06:55:21;;;;;;;21.45;18.20;;;15.00;99.90;;;;;;5048279;28;20021;-61
2022/06/07 06:57:48;;;;;;;23.00;19.27;;;15.00;99.90;;;;;;5046243;28;20040;-62
2022/06/07 07:00:15;;;;;;;18.70;16.48;;;15.10;99.90;;;;;;5051049;28;20025;-62
2022/06/07 07:02:41;;;;;;;22.65;18.00;;;15.10;99.90;;;;;;5050806;28;20421;-61
2022/06/07 07:05:07;;;;;;;20.77;15.70;;;15.10;99.90;;;;;;5048249;28;20071;-61
2022/06/07 07:07:32;;;;;;;20.45;18.25;;;15.10;99.90;;;;;;5050317;28;20021;-62
2022/06/07 07:09:58;;;;;;;22.90;18.08;;;15.20;99.90;;;;;;5049714;28;20017;-62
2022/06/07 07:12:24;;;;;;;22.83;16.38;;;15.20;99.90;;;;;;5050588;28;20028;-62
2022/06/07 07:14:49;;;;;;;22.15;16.52;;;15.30;99.90;;;;;;5044044;28;20164;-62
2022/06/07 07:17:15;;;;;;;21.48;18.55;;;15.40;99.90;;;;;;5040068;28;20029;-62
2022/06/07 07:19:41;;;;;;;19.58;17.42;;;15.50;99.90;;;;;;5042858;28;20029;-62
2022/06/07 07:22:06;;;;;;;20.02;17.85;;;15.50;99.90;;;;;;5039466;28;20440;-62
2022/06/07 07:24:32;;;;;;;25.48;18.67;;;15.60;99.90;;;;;;5038692;28;20412;-62
2022/06/07 07:26:59;;;;;;;23.05;18.80;;;15.70;99.90;;;;;;5046056;28;20024;-62
2022/06/07 07:29:25;;;;;;;19.35;17.33;;;15.70;99.90;;;;;;5036573;28;20017;-62
2022/06/07 07:31:52;;;;;;;21.27;18.27;;;15.80;99.90;;;;;;5040573;28;20515;-62
2022/06/07 07:34:18;;;;;;;25.02;19.40;;;15.80;99.90;;;;;;5036083;28;20030;-62
2022/06/07 07:36:47;;;;;;;19.75;17.65;;;15.90;99.90;;;;;;5045814;28;20024;-62
2022/06/07 07:39:13;;;;;;;23.93;18.47;;;15.90;99.90;;;;;;5044806;28;20021;-62
2022/06/07 07:41:41;;;;;;;24.42;21.83;;;16.00;99.90;;;;;;5042396;28;20469;-61
2022/06/07 07:44:11;;;;;;;22.48;19.98;;;16.00;99.90;;;;;;5043485;28;20136;-62
2022/06/07 07:46:38;;;;;;;22.10;18.38;;;16.00;99.90;;;;;;5039412;28;20070;-62
2022/06/07 07:49:05;;;;;;;22.98;19.17;;;16.00;99.90;;;;;;5040224;28;20081;-62
2022/06/07 07:51:34;;;;;;;22.60;19.50;;;16.10;99.90;;;;;;5041430;28;20456;-62
2022/06/07 07:54:01;;;;;;;22.52;19.42;;;16.20;99.90;;;;;;5045534;28;20044;-62
2022/06/07 07:56:27;;;;;;;19.40;17.40;;;16.30;99.90;;;;;;5040444;28;20081;-62
2022/06/07 07:58:54;;;;;;;20.55;18.40;;;16.30;99.90;;;;;;5046491;28;21139;-62
2022/06/07 08:01:22;;;;;;;26.33;20.88;;;16.40;99.90;;;;;;5040268;28;20025;-61
2022/06/07 08:03:49;;;;;;;27.00;21.30;;;16.40;99.90;;;;;;5040888;28;20029;-62
2022/06/07 08:06:17;;;;;;;24.25;20.30;;;16.40;99.90;;;;;;5043875;28;20037;-62
2022/06/07 08:08:44;;;;;;;21.23;18.27;;;16.40;99.90;;;;;;5038882;28;20497;-62
2022/06/07 08:11:09;;;;;;;27.10;21.20;;;16.40;99.90;;;;;;5038550;28;20021;-61
2022/06/07 08:13:36;;;;;;;22.85;19.13;;;16.50;99.90;;;;;;5041876;28;20053;-61
2022/06/07 08:16:05;;;;;;;25.15;20.65;;;16.50;99.90;;;;;;5038372;28;20024;-62
2022/06/07 08:18:30;;;;;;;21.05;18.75;;;16.50;99.90;;;;;;5041549;28;20032;-62
2022/06/07 08:20:58;;;;;;;24.80;20.25;;;16.50;99.90;;;;;;5038151;28;20082;-61
2022/06/07 08:23:24;;;;;;;21.30;19.10;;;16.50;99.60;;;;;;5042903;28;20029;-62
2022/06/07 08:25:49;;;;;;;27.80;21.08;;;16.50;99.60;;;;;;5037040;28;20424;-61
2022/06/07 08:28:15;;;;;;;28.30;21.52;;;16.50;99.60;;;;;;5040762;28;20031;-62
2022/06/07 08:30:46;;;;;;;29.90;23.63;;;16.60;99.30;;;;;;5045484;28;20037;-61
2022/06/07 08:38:41;;;;;;;22.52;20.13;;;16.70;98.90;;;;;;5045595;28;20047;-61
2022/06/07 08:41:07;;;;;;;26.33;21.75;;;16.70;98.80;;;;;;5037805;28;20453;-61
2022/06/07 08:43:33;;;;;;;25.40;20.77;;;16.90;98.80;;;;;;5043879;28;20032;-62
2022/06/07 08:45:59;;;;;;;24.58;20.73;;;16.90;98.80;;;;;;5043293;28;20307;-62
2022/06/07 08:48:28;;;;;;;24.35;20.92;;;17.00;98.70;;;;;;5038533;28;20063;-61
2022/06/07 08:51:14;;;;;;;23.70;19.83;;;17.00;98.60;;;;;;5038648;28;20091;-62
2022/06/07 08:53:52;;;;;;;23.63;19.38;;;17.10;98.40;;;;;;5040036;28;20045;-61
2022/06/07 08:56:25;;;;;;;22.27;19.27;;;17.10;98.00;;;;;;5046030;28;20529;-61
2022/06/07 08:58:52;;;;;;;19.15;16.98;;;17.10;98.00;;;;;;5045345;28;20029;-62
2022/06/07 09:02:03;;;;;;;19.13;16.92;;;17.10;97.80;;;;;;5039216;28;20018;-61
2022/06/07 09:04:33;;;;;;;20.00;17.70;;;17.20;97.70;;;;;;5005862;28;20038;-61
2022/06/07 09:07:03;;;;;;;19.40;17.35;;;17.30;97.90;;;;;;5033228;28;20084;-62
2022/06/07 09:12:31;;;;;;;22.00;19.17;;;17.20;97.70;;;;;;5041404;28;20505;-61
2022/06/07 09:15:00;;;;;;;21.15;18.55;;;17.20;97.90;;;;;;5029652;28;20087;-61
2022/06/07 09:17:35;;;;;;;18.65;16.58;;;17.20;98.10;;;;;;5033911;28;20052;-62
2022/06/07 09:20:02;;;;;;;18.02;16.13;;;17.30;98.20;;;;;;5051438;28;20025;-62
2022/06/07 09:22:57;;;;;;;20.85;17.48;;;17.40;98.10;;;;;;5033419;28;20029;-62
2022/06/07 09:25:36;;;;;;;19.20;17.20;;;17.50;97.80;;;;;;5036652;28;20022;-62
2022/06/07 09:28:10;;;;;;;17.60;15.73;;;17.60;98.00;;;;;;5039059;28;20512;-61
2022/06/07 09:30:40;;;;;;;22.67;18.05;;;17.60;97.80;;;;;;5036743;28;20076;-61
2022/06/07 09:33:26;;;;;;;19.95;17.10;;;17.70;97.90;;;;;;5033381;28;20021;-61
2022/06/07 09:35:58;;;;;;;18.08;15.75;;;17.80;97.70;;;;;;5046340;28;20158;-61
2022/06/07 09:38:41;;;;;;;19.60;17.15;;;17.90;97.50;;;;;;5033791;28;20021;-61
2022/06/07 09:41:36;;;;;;;21.85;17.63;;;17.90;97.00;;;;;;5034391;28;20033;-61
2022/06/07 09:44:25;;;;;;;18.17;16.35;;;18.00;97.10;;;;;;5034972;28;20033;-61
2022/06/07 09:47:25;;;;;;;19.92;16.75;;;18.20;96.70;;;;;;5038408;28;20048;-61
2022/06/07 09:50:18;;;;;;;21.80;19.50;;;18.20;96.00;;;;;;5048147;28;20086;-61
2022/06/07 09:52:48;;;;;;;19.60;17.50;;;18.20;96.10;;;;;;5033324;28;20099;-61
2022/06/07 09:55:22;;;;;;;16.48;14.70;;;18.20;96.20;;;;;;5044803;28;20450;-61
2022/06/07 09:57:55;;;;;;;18.20;16.33;;;18.40;96.20;;;;;;5036445;28;20052;-61
2022/06/07 10:00:31;;;;;;;15.38;13.80;;;18.60;95.90;;;;;;5045486;28;20021;-62
2022/06/07 10:03:18;;;;;;;14.50;12.68;;;18.90;95.40;;;;;;5046305;28;20087;-61
2022/06/07 10:06:15;;;;;;;16.50;14.77;;;19.10;95.00;;;;;;5040164;28;20028;-61
2022/06/07 10:08:47;;;;;;;15.13;13.63;;;19.30;94.30;;;;;;5049630;28;20072;-62
2022/06/07 10:11:40;;;;;;;17.70;15.90;;;19.40;93.90;;;;;;5049751;28;20358;-62
2022/06/07 10:14:13;;;;;;;17.13;15.30;;;19.60;93.10;;;;;;5046178;28;20070;-61
2022/06/07 10:17:09;;;;;;;17.25;15.13;;;19.50;92.30;;;;;;5051542;28;20029;-61
2022/06/07 10:20:14;;;;;;;15.50;13.82;;;19.60;92.60;;;;;;5045690;28;20024;-61
2022/06/07 10:22:53;;;;;;;13.65;12.25;;;19.80;92.40;;;;;;5036023;28;20040;-61
2022/06/07 10:25:27;;;;;;;14.70;13.15;;;19.90;92.00;;;;;;5033920;28;20029;-61
2022/06/07 10:28:11;;;;;;;13.25;11.95;;;20.10;91.80;;;;;;5035733;28;20036;-61
2022/06/07 10:31:02;;;;;;;14.10;12.75;;;20.20;91.60;;;;;;5036254;28;20048;-62
2022/06/07 10:33:44;;;;;;;13.43;11.95;;;20.40;91.40;;;;;;5041990;28;20047;-61
2022/06/07 10:36:33;;;;;;;12.52;11.32;;;20.60;90.90;;;;;;5051105;28;20025;-61
2022/06/07 10:39:21;;;;;;;11.18;10.02;;;20.70;90.60;;;;;;5038516;28;20446;-62
2022/06/07 10:42:00;;;;;;;13.50;11.83;;;20.80;89.80;;;;;;5042780;28;20055;-61
2022/06/07 10:44:33;;;;;;;;;;;20.70;88.90;;;;;;5036962;28;20032;-62
2022/06/07 10:47:10;;;;;;;9.88;8.00;;;20.70;89.60;;;;;;5043054;28;20012;-61
2022/06/07 10:50:03;;;;;;;12.18;10.80;;;20.60;87.80;;;;;;5039702;28;20025;-61
2022/06/07 10:52:51;;;;;;;12.90;11.43;;;20.50;86.30;;;;;;5043011;28;20041;-61
2022/06/07 10:55:35;;;;;;;10.68;9.57;;;20.60;88.00;;;;;;5042047;28;20588;-61
2022/06/07 10:58:19;;;;;;;10.30;9.15;;;20.80;87.90;;;;;;5046317;28;20469;-61
2022/06/07 11:00:53;;;;;;;10.18;8.98;;;20.90;87.80;;;;;;5046103;28;20021;-61
2022/06/07 11:03:37;;;;;;;10.60;9.00;;;21.00;86.70;;;;;;5041988;28;20021;-61
2022/06/07 11:09:41;;;;;;;10.05;8.98;;;21.00;86.40;;;;;;5034657;28;20542;-61
2022/06/07 11:12:14;;;;;;;10.82;9.10;;;21.10;86.60;;;;;;5042766;28;20028;-61
2022/06/07 11:14:57;;;;;;;8.93;6.63;;;21.30;85.40;;;;;;5040130;28;20063;-61
2022/06/07 11:17:31;;;;;;;9.07;7.68;;;21.40;84.10;;;;;;5038534;28;20021;-61
2022/06/07 11:20:13;;;;;;;10.23;8.98;;;21.50;83.00;;;;;;5035236;28;20113;-61
2022/06/07 11:23:10;;;;;;;7.15;6.38;;;21.70;83.00;;;;;;5047411;28;20055;-61
2022/06/07 11:25:43;;;;;;;7.40;6.20;;;21.90;82.60;;;;;;5038626;28;20037;-61
2022/06/07 11:28:26;;;;;;;8.45;6.97;;;22.00;82.80;;;;;;5035338;28;20070;-61
2022/06/07 11:30:53;;;;;;;7.68;6.10;;;22.10;82.40;;;;;;5048614;28;20096;-61
2022/06/07 11:33:57;;;;;;;8.82;7.95;;;22.10;82.40;;;;;;5043056;28;20056;-61
2022/06/07 11:36:36;;;;;;;9.45;7.20;;;22.20;83.10;;;;;;5038333;28;20029;-61
2022/06/07 11:39:24;;;;;;;9.95;8.43;;;22.20;82.80;;;;;;5038748;28;20447;-61
2022/06/07 11:41:55;;;;;;;7.40;6.47;;;22.20;82.10;;;;;;5036590;28;20482;-60
2022/06/07 11:44:30;;;;;;;8.15;7.15;;;22.20;82.40;;;;;;5045323;28;20029;-61
2022/06/07 11:47:07;;;;;;;8.55;7.38;;;22.10;82.20;;;;;;5039309;28;20060;-61
2022/06/07 11:49:41;;;;;;;8.00;7.00;;;22.00;82.40;;;;;;5046458;28;20080;-61
2022/06/07 11:52:12;;;;;;;8.07;7.20;;;21.90;82.60;;;;;;5032194;28;20053;-62
2022/06/07 11:54:44;;;;;;;9.10;6.82;;;21.80;82.90;;;;;;5027255;28;20028;-61
2022/06/07 11:57:29;;;;;;;7.63;5.60;;;21.70;82.60;;;;;;5039907;28;20036;-61
2022/06/07 12:00:03;;;;;;;6.93;5.50;;;21.60;82.70;;;;;;5035401;28;20031;-61
2022/06/07 12:02:37;;;;;;;8.07;6.55;;;21.50;82.10;;;;;;5032857;28;20033;-61
2022/06/07 12:05:29;;;;;;;7.53;5.55;;;21.40;82.10;;;;;;5037824;28;20107;-61
2022/06/07 12:08:00;;;;;;;6.32;5.68;;;21.40;81.30;;;;;;5036418;28;20447;-61
2022/06/07 12:10:38;;;;;;;6.90;5.90;;;21.40;81.70;;;;;;5040578;28;20435;-61
2022/06/07 12:13:15;;;;;;;6.37;5.77;;;21.40;81.80;;;;;;5029661;28;20063;-61
2022/06/07 12:15:49;;;;;;;5.43;4.90;;;21.30;81.90;;;;;;5042553;28;20075;-61
2022/06/07 12:18:19;;;;;;;6.78;5.82;;;21.30;81.60;;;;;;5045450;28;20025;-61
2022/06/07 12:21:12;;;;;;;6.25;4.90;;;21.20;81.50;;;;;;5042565;28;20431;-61
2022/06/07 12:23:42;;;;;;;6.95;5.30;;;21.30;81.80;;;;;;5032224;28;20084;-61
2022/06/07 12:26:41;;;;;;;7.25;6.20;;;21.50;81.90;;;;;;5035549;28;20108;-61
2022/06/07 12:29:29;;;;;;;10.93;5.90;;;21.70;80.70;;;;;;5016964;28;20116;-61
2022/06/07 12:31:57;;;;;;;6.32;5.03;;;21.80;79.90;;;;;;5042899;28;20026;-61
2022/06/07 12:34:33;;;;;;;6.00;4.90;;;21.80;80.10;;;;;;5033674;28;20024;-60
2022/06/07 12:37:03;;;;;;;5.82;4.35;;;21.80;80.20;;;;;;5047899;28;20029;-61
2022/06/07 12:39:30;;;;;;;5.10;4.32;;;21.60;80.30;;;;;;5030728;28;20386;-60
2022/06/07 12:42:06;;;;;;;7.00;5.80;;;21.60;80.40;;;;;;5031687;28;20531;-61
2022/06/07 12:44:41;;;;;;;6.97;6.28;;;21.50;80.20;;;;;;5035546;28;20167;-61
2022/06/07 12:47:20;;;;;;;10.57;7.20;;;21.60;81.00;;;;;;5027545;28;20084;-61
2022/06/07 12:49:46;;;;;;;;;;;21.80;81.70;;;;;;5028508;28;20033;-61
2022/06/07 12:52:18;;;;;;;7.55;6.32;;;22.00;81.70;;;;;;5028831;28;20443;-61
2022/06/07 12:54:55;;;;;;;8.88;6.72;;;22.30;81.80;;;;;;5032267;28;20083;-61
2022/06/07 12:57:29;;;;;;;6.82;5.70;;;22.70;81.20;;;;;;5031732;28;20532;-61
2022/06/07 13:00:03;;;;;;;7.40;4.65;;;22.90;80.60;;;;;;5035868;28;20025;-61
2022/06/07 13:02:52;;;;;;;4.97;4.47;;;23.10;80.00;;;;;;5037164;28;20370;-61
2022/06/07 13:05:34;;;;;;;5.43;4.07;;;23.10;78.70;;;;;;5032514;28;20060;-61
2022/06/07 13:08:02;;;;;;;6.20;3.38;;;23.20;77.70;;;;;;5031987;28;20072;-61
2022/06/07 13:10:32;;;;;;;6.93;4.00;;;23.20;76.70;;;;;;5031314;28;20113;-61